createdAt,value
2022-08-14T00:02:03.225Z,21.02
2022-08-14T00:04:36.098Z,21.03
2022-08-14T00:07:14.072Z,21.02
2022-08-14T00:10:02.202Z,21.03
2022-08-14T00:12:37.805Z,20.98
2022-08-14T00:15:37.469Z,21.02
2022-08-14T00:18:14.584Z,21.02
2022-08-14T00:20:43.390Z,20.98
2022-08-14T00:23:16.904Z,20.99
2022-08-14T00:25:53.858Z,20.99
2022-08-14T00:28:34.999Z,20.99
2022-08-14T00:31:04.606Z,20.97
2022-08-14T00:33:50.494Z,20.99
2022-08-14T00:36:35.580Z,21.00
2022-08-14T00:39:09.513Z,20.98
2022-08-14T00:41:38.783Z,21.00
2022-08-14T00:44:06.198Z,20.94
2022-08-14T00:46:33.531Z,20.98
2022-08-14T00:49:02.059Z,20.93
2022-08-14T00:51:37.667Z,20.92
2022-08-14T00:54:17.065Z,20.97
2022-08-14T00:56:55.255Z,20.93
2022-08-14T00:59:25.115Z,20.94
2022-08-14T01:01:55.913Z,20.95
2022-08-14T01:04:38.432Z,20.94
2022-08-14T01:07:11.191Z,20.93
2022-08-14T01:09:41.463Z,20.93
2022-08-14T01:12:09.342Z,20.92
2022-08-14T01:14:37.667Z,20.85
2022-08-14T01:17:08.981Z,20.89
2022-08-14T01:19:54.796Z,20.89
2022-08-14T01:22:21.870Z,20.88
2022-08-14T01:24:54.066Z,20.80
2022-08-14T01:27:24.149Z,20.87
2022-08-14T01:30:01.460Z,20.86
2022-08-14T01:32:35.643Z,20.87
2022-08-14T01:35:21.220Z,20.85
2022-08-14T01:37:57.667Z,20.84
2022-08-14T01:40:36.295Z,20.78
2022-08-14T01:43:14.589Z,20.85
2022-08-14T01:45:42.158Z,20.86
2022-08-14T01:48:13.304Z,20.84
2022-08-14T01:50:42.656Z,20.83
2022-08-14T01:53:11.465Z,20.83
2022-08-14T01:55:40.538Z,20.84
2022-08-14T01:58:19.746Z,20.83
2022-08-14T02:00:54.978Z,20.77
2022-08-14T02:03:31.243Z,20.84
2022-08-14T02:06:03.794Z,20.85
2022-08-14T02:08:53.014Z,20.77
2022-08-14T02:11:24.422Z,20.82
2022-08-14T02:13:56.658Z,20.81
2022-08-14T02:16:26.354Z,20.82
2022-08-14T02:18:56.475Z,20.79
2022-08-14T02:21:26.926Z,20.83
2022-08-14T02:23:55.572Z,20.82
2022-08-14T02:26:29.669Z,20.74
2022-08-14T02:29:03.453Z,20.76
2022-08-14T02:31:41.882Z,20.80
2022-08-14T02:34:22.053Z,20.79
2022-08-14T02:37:04.831Z,20.77
2022-08-14T02:39:45.903Z,20.70
2022-08-14T02:42:15.440Z,20.68
2022-08-14T02:44:50.498Z,20.73
2022-08-14T02:47:21.045Z,20.69
2022-08-14T02:49:54.997Z,20.67
2022-08-14T02:52:55.493Z,20.67
2022-08-14T02:55:19.913Z,20.60
2022-08-14T02:57:58.010Z,20.63
2022-08-14T03:00:25.765Z,20.62
2022-08-14T03:02:58.639Z,20.60
2022-08-14T03:05:32.822Z,20.59
2022-08-14T03:08:21.489Z,20.55
2022-08-14T03:10:49.075Z,20.51
2022-08-14T03:13:19.768Z,20.56
2022-08-14T03:15:55.467Z,20.49
2022-08-14T03:18:31.629Z,20.49
2022-08-14T03:21:05.424Z,20.57
2022-08-14T03:23:37.645Z,20.57
2022-08-14T03:26:08.583Z,20.50
2022-08-14T03:28:36.619Z,20.56
2022-08-14T03:31:04.315Z,20.57
2022-08-14T03:33:38.429Z,20.53
2022-08-14T03:37:28.589Z,20.62
2022-08-14T03:39:12.935Z,20.62
2022-08-14T03:41:47.696Z,20.66
2022-08-14T03:45:19.128Z,20.69
2022-08-14T03:47:02.946Z,20.74
2022-08-14T03:49:30.409Z,20.84
2022-08-14T03:52:02.898Z,20.89
2022-08-14T03:54:31.082Z,20.81
2022-08-14T03:57:02.759Z,20.87
2022-08-14T03:59:30.890Z,20.89
2022-08-14T04:02:02.182Z,20.83
2022-08-14T04:04:32.114Z,20.82
2022-08-14T04:07:00.828Z,20.87
2022-08-14T04:09:28.041Z,20.84
2022-08-14T04:11:56.163Z,20.82
2022-08-14T04:14:24.936Z,20.81
2022-08-14T04:16:51.737Z,20.78
2022-08-14T04:19:22.386Z,20.77
2022-08-14T04:22:02.104Z,20.74
2022-08-14T04:24:38.635Z,20.75
2022-08-14T04:27:11.837Z,20.66
2022-08-14T04:29:42.533Z,20.73
2022-08-14T04:32:58.578Z,20.71
2022-08-14T04:34:57.960Z,20.71
2022-08-14T04:37:45.515Z,20.70
2022-08-14T04:40:40.531Z,20.68
2022-08-14T04:43:32.483Z,20.66
2022-08-14T04:46:11.841Z,20.61
2022-08-14T04:48:59.940Z,20.71
2022-08-14T04:51:28.206Z,20.67
2022-08-14T04:53:57.338Z,20.72
2022-08-14T04:56:31.172Z,20.72
2022-08-14T04:59:09.892Z,20.77
2022-08-14T05:01:41.750Z,20.70
2022-08-14T05:04:16.380Z,20.77
2022-08-14T05:06:49.260Z,20.77
2022-08-14T05:09:16.516Z,20.83
2022-08-14T05:11:44.614Z,20.81
2022-08-14T05:14:34.456Z,20.82
2022-08-14T05:17:01.633Z,20.84
2022-08-14T05:19:30.023Z,20.86
2022-08-14T05:22:16.392Z,20.87
2022-08-14T05:24:50.274Z,20.91
2022-08-14T05:27:23.078Z,20.93
2022-08-14T05:29:56.879Z,20.95
2022-08-14T05:32:27.177Z,20.93
2022-08-14T05:34:58.309Z,21.02
2022-08-14T05:37:28.067Z,21.09
2022-08-14T05:39:55.212Z,21.15
2022-08-14T05:42:26.959Z,21.21
2022-08-14T05:44:56.617Z,21.37
2022-08-14T05:47:28.930Z,21.47
2022-08-14T05:50:09.650Z,21.56
2022-08-14T05:52:44.412Z,21.63
2022-08-14T05:55:11.731Z,21.69
2022-08-14T05:58:01.691Z,21.75
2022-08-14T06:00:39.638Z,21.90
2022-08-14T06:03:09.653Z,21.85
2022-08-14T06:05:38.440Z,21.98
2022-08-14T06:08:31.057Z,22.02
2022-08-14T06:11:06.107Z,22.04
2022-08-14T06:13:44.987Z,22.11
2022-08-14T06:16:17.556Z,22.18
2022-08-14T06:18:52.323Z,22.24
2022-08-14T06:21:23.187Z,22.25
2022-08-14T06:23:51.407Z,22.38
2022-08-14T06:26:20.740Z,22.40
2022-08-14T06:28:52.254Z,22.47
2022-08-14T06:31:21.247Z,22.53
2022-08-14T06:35:09.492Z,22.60
2022-08-14T06:36:38.014Z,22.64
2022-08-14T06:39:08.135Z,22.68
2022-08-14T06:41:58.005Z,22.73
2022-08-14T06:44:32.324Z,22.84
2022-08-14T06:47:02.634Z,22.79
2022-08-14T06:49:30.285Z,22.91
2022-08-14T06:51:57.479Z,23.00
2022-08-14T06:54:31.538Z,23.02
2022-08-14T06:56:58.655Z,23.01
2022-08-14T06:59:25.686Z,22.96
2022-08-14T07:02:13.546Z,22.97
2022-08-14T07:04:59.441Z,23.05
2022-08-14T07:07:28.759Z,23.11
2022-08-14T07:09:55.924Z,23.16
2022-08-14T07:12:54.538Z,23.15
2022-08-14T07:15:11.042Z,23.30
2022-08-14T07:17:46.788Z,23.47
2022-08-14T07:20:31.050Z,23.60
2022-08-14T07:23:06.919Z,23.58
2022-08-14T07:25:38.017Z,23.68
2022-08-14T07:28:33.101Z,23.82
2022-08-14T07:31:04.715Z,23.88
2022-08-14T07:33:42.027Z,23.87
2022-08-14T07:36:27.435Z,23.95
2022-08-14T07:39:03.244Z,24.03
2022-08-14T07:41:33.610Z,24.09
2022-08-14T07:44:22.590Z,24.13
2022-08-14T07:46:50.161Z,24.28
2022-08-14T07:49:17.957Z,24.34
2022-08-14T07:51:45.916Z,24.45
2022-08-14T07:54:23.480Z,24.54
2022-08-14T07:57:12.312Z,24.70
2022-08-14T07:59:43.758Z,24.76
2022-08-14T08:02:19.439Z,24.89
2022-08-14T08:04:54.571Z,24.97
2022-08-14T08:07:29.921Z,25.05
2022-08-14T08:10:01.254Z,25.07
2022-08-14T08:12:30.880Z,25.11
2022-08-14T08:15:05.791Z,25.02
2022-08-14T08:17:42.805Z,25.08
2022-08-14T08:20:27.108Z,25.15
2022-08-14T08:23:05.871Z,25.19
2022-08-14T08:25:41.160Z,25.18
2022-08-14T08:28:22.424Z,25.30
2022-08-14T08:30:56.487Z,25.35
2022-08-14T08:33:26.331Z,25.37
2022-08-14T08:36:01.509Z,25.51
2022-08-14T08:39:17.102Z,25.61
2022-08-14T08:41:15.601Z,25.73
2022-08-14T08:43:46.280Z,25.78
2022-08-14T08:46:23.847Z,25.89
2022-08-14T08:51:25.322Z,25.95
2022-08-14T08:54:02.519Z,25.95
2022-08-14T08:56:48.937Z,25.87
2022-08-14T08:59:27.193Z,25.92
2022-08-14T09:02:00.615Z,25.89
2022-08-14T09:04:45.736Z,25.82
2022-08-14T09:07:27.006Z,25.81
2022-08-14T09:09:59.172Z,25.81
2022-08-14T09:12:32.213Z,25.77
2022-08-14T09:15:11.403Z,25.76
2022-08-14T09:17:41.224Z,25.73
2022-08-14T09:20:11.648Z,25.78
2022-08-14T09:22:42.693Z,25.80
2022-08-14T09:25:17.335Z,25.76
2022-08-14T09:27:47.165Z,25.89
2022-08-14T09:30:33.126Z,25.95
2022-08-14T09:33:11.076Z,26.03
2022-08-14T09:35:58.164Z,26.16
2022-08-14T09:38:43.988Z,26.25
2022-08-14T09:42:21.621Z,26.33
2022-08-14T09:44:46.118Z,26.44
2022-08-14T09:47:16.975Z,26.50
2022-08-14T09:49:47.165Z,26.57
2022-08-14T09:52:32.688Z,26.57
2022-08-14T09:55:02.815Z,26.67
2022-08-14T09:57:34.083Z,26.70
2022-08-14T10:00:30.129Z,26.69
2022-08-14T10:03:03.576Z,26.69
2022-08-14T10:05:35.098Z,26.63
2022-08-14T10:08:25.474Z,26.61
2022-08-14T10:10:57.347Z,26.61
2022-08-14T10:13:30.505Z,26.56
2022-08-14T10:16:25.606Z,26.56
2022-08-14T10:19:15.887Z,26.57
2022-08-14T10:23:11.070Z,26.62
2022-08-14T10:24:46.236Z,26.61
2022-08-14T10:27:23.363Z,26.61
2022-08-14T10:29:55.789Z,26.57
2022-08-14T10:32:28.448Z,26.56
2022-08-14T10:35:10.933Z,26.53
2022-08-14T10:37:52.244Z,26.52
2022-08-14T10:40:38.408Z,26.46
2022-08-14T10:43:23.231Z,26.48
2022-08-14T10:46:03.266Z,26.57
2022-08-14T10:49:03.893Z,26.64
2022-08-14T10:51:36.355Z,26.72
2022-08-14T10:54:16.275Z,26.82
2022-08-14T10:57:18.794Z,26.86
2022-08-14T10:59:49.995Z,26.97
2022-08-14T11:02:53.908Z,26.98
2022-08-14T11:05:23.565Z,27.11
2022-08-14T11:07:55.436Z,27.06
2022-08-14T11:10:39.227Z,27.08
2022-08-14T11:13:10.646Z,27.03
2022-08-14T11:15:37.456Z,26.93
2022-08-14T11:18:05.339Z,26.93
2022-08-14T11:20:33.105Z,26.82
2022-08-14T11:23:01.466Z,26.83
2022-08-14T11:25:43.666Z,26.82
2022-08-14T11:28:19.288Z,26.84
2022-08-14T11:30:54.380Z,26.90
2022-08-14T11:33:29.154Z,26.87
2022-08-14T11:35:59.393Z,26.93
2022-08-14T11:38:29.201Z,26.95
2022-08-14T11:41:00.259Z,26.96
2022-08-14T11:43:29.602Z,26.99
2022-08-14T11:45:57.837Z,27.04
2022-08-14T11:49:03.083Z,27.10
2022-08-14T11:51:26.151Z,27.10
2022-08-14T11:54:06.367Z,27.07
2022-08-14T11:56:43.874Z,27.02
2022-08-14T11:59:19.777Z,27.11
2022-08-14T12:01:54.941Z,27.09
2022-08-14T12:04:33.423Z,27.18
2022-08-14T12:07:01.614Z,27.23
2022-08-14T12:09:33.939Z,27.30
2022-08-14T12:12:02.599Z,27.33
2022-08-14T12:14:35.463Z,27.34
2022-08-14T12:17:09.397Z,27.32
2022-08-14T12:19:45.537Z,27.51
2022-08-14T12:22:12.370Z,27.54
2022-08-14T12:24:53.005Z,27.54
2022-08-14T12:27:25.141Z,27.56
2022-08-14T12:29:53.979Z,27.57
2022-08-14T12:32:21.017Z,27.56
2022-08-14T12:34:54.956Z,27.49
2022-08-14T12:37:30.418Z,27.45
2022-08-14T12:40:15.651Z,27.45
2022-08-14T12:42:53.630Z,27.49
2022-08-14T12:45:31.502Z,27.46
2022-08-14T12:48:21.043Z,27.58
2022-08-14T12:50:52.249Z,27.63
2022-08-14T12:53:21.979Z,27.63
2022-08-14T12:56:21.338Z,27.62
2022-08-14T12:58:55.533Z,27.65
2022-08-14T13:01:28.831Z,27.59
2022-08-14T13:04:14.053Z,27.59
2022-08-14T13:06:44.772Z,27.56
2022-08-14T13:09:17.836Z,27.56
2022-08-14T13:11:58.444Z,27.51
2022-08-14T13:14:38.499Z,27.45
2022-08-14T13:17:05.586Z,27.34
2022-08-14T13:19:35.624Z,27.29
2022-08-14T13:22:09.858Z,27.23
2022-08-14T13:24:48.099Z,27.17
2022-08-14T13:27:18.697Z,27.12
2022-08-14T13:29:47.433Z,27.11
2022-08-14T13:32:15.324Z,27.06
2022-08-14T13:34:45.454Z,27.00
2022-08-14T13:37:16.969Z,26.94
2022-08-14T13:39:56.388Z,26.86
2022-08-14T13:42:30.850Z,26.82
2022-08-14T13:45:02.383Z,26.70
2022-08-14T13:47:33.120Z,26.64
2022-08-14T13:50:02.659Z,26.53
2022-08-14T13:52:53.393Z,26.53
2022-08-14T13:55:25.702Z,26.34
2022-08-14T13:58:03.301Z,26.26
2022-08-14T14:00:53.099Z,26.18
2022-08-14T14:03:24.291Z,26.08
2022-08-14T14:05:54.901Z,26.08
2022-08-14T14:08:46.813Z,26.05
2022-08-14T14:11:15.669Z,26.03
2022-08-14T14:13:45.693Z,25.99
2022-08-14T14:16:15.298Z,25.91
2022-08-14T14:18:56.009Z,25.94
2022-08-14T14:21:26.507Z,25.93
2022-08-14T14:23:57.010Z,25.83
2022-08-14T14:26:24.713Z,25.74
2022-08-14T14:28:57.031Z,25.73
2022-08-14T14:31:29.921Z,25.62
2022-08-14T14:34:29.167Z,25.61
2022-08-14T14:37:04.857Z,25.57
2022-08-14T14:39:37.618Z,25.47
2022-08-14T14:42:06.603Z,25.43
2022-08-14T14:44:40.290Z,25.35
2022-08-14T14:47:15.563Z,25.39
2022-08-14T14:49:54.906Z,25.38
2022-08-14T14:52:26.937Z,25.39
2022-08-14T14:54:57.170Z,25.38
2022-08-14T14:57:35.759Z,25.41
2022-08-14T15:00:06.942Z,25.41
2022-08-14T15:02:39.189Z,25.41
2022-08-14T15:05:08.078Z,25.39
2022-08-14T15:07:36.565Z,25.36
2022-08-14T15:10:27.637Z,25.32
2022-08-14T15:12:57.908Z,25.38
2022-08-14T15:15:27.670Z,25.35
2022-08-14T15:17:55.139Z,25.32
2022-08-14T15:20:30.669Z,25.29
2022-08-14T15:23:12.118Z,25.30
2022-08-14T15:25:45.318Z,25.29
2022-08-14T15:28:21.788Z,25.31
2022-08-14T15:30:51.192Z,25.31
2022-08-14T15:34:01.016Z,25.28
2022-08-14T15:36:35.262Z,25.26
2022-08-14T15:39:03.526Z,25.26
2022-08-14T15:41:33.708Z,25.23
2022-08-14T15:44:25.564Z,25.23
2022-08-14T15:46:54.282Z,25.22
2022-08-14T15:49:24.413Z,25.18
2022-08-14T15:51:59.304Z,25.07
2022-08-14T15:54:31.171Z,25.10
2022-08-14T15:57:00.770Z,25.04
2022-08-14T15:59:48.092Z,25.02
2022-08-14T16:02:16.722Z,24.99
2022-08-14T16:04:46.104Z,24.98
2022-08-14T16:07:18.788Z,24.94
2022-08-14T16:10:01.333Z,24.94
2022-08-14T16:12:41.639Z,24.91
2022-08-14T16:15:16.872Z,24.88
2022-08-14T16:17:44.901Z,24.87
2022-08-14T16:20:12.690Z,24.79
2022-08-14T16:23:05.601Z,24.80
2022-08-14T16:25:42.786Z,24.79
2022-08-14T16:28:10.405Z,24.75
2022-08-14T16:30:54.445Z,24.71
2022-08-14T16:33:56.405Z,24.66
2022-08-14T16:36:26.545Z,24.59
2022-08-14T16:39:00.252Z,24.60
2022-08-14T16:41:27.992Z,24.50
2022-08-14T16:44:02.433Z,24.53
2022-08-14T16:46:42.918Z,24.50
2022-08-14T16:49:14.549Z,24.45
2022-08-14T16:51:43.594Z,24.35
2022-08-14T16:54:34.430Z,24.34
2022-08-14T16:57:34.449Z,24.34
2022-08-14T17:00:07.470Z,24.31
2022-08-14T17:02:46.646Z,24.19
2022-08-14T17:05:26.940Z,24.21
2022-08-14T17:08:28.302Z,24.18
2022-08-14T17:10:51.748Z,24.17
2022-08-14T17:13:58.267Z,24.12
2022-08-14T17:16:24.260Z,24.02
2022-08-14T17:19:03.824Z,24.05
2022-08-14T17:21:38.131Z,24.02
2022-08-14T17:24:55.922Z,23.94
2022-08-14T17:27:00.130Z,23.94
2022-08-14T17:29:33.794Z,23.86
2022-08-14T17:32:22.384Z,23.83
2022-08-14T17:34:55.451Z,23.73
2022-08-14T17:37:35.560Z,23.72
2022-08-14T17:40:16.680Z,23.68
2022-08-14T17:42:51.354Z,23.65
2022-08-14T17:45:41.084Z,23.61
2022-08-14T17:49:10.630Z,23.58
2022-08-14T17:51:14.532Z,23.52
2022-08-14T17:53:52.591Z,23.47
2022-08-14T17:56:21.112Z,23.42
2022-08-14T17:58:49.579Z,23.34
2022-08-14T18:01:23.627Z,23.31
2022-08-14T18:03:54.058Z,23.21
2022-08-14T18:06:40.164Z,23.23
2022-08-14T18:09:24.698Z,23.20
2022-08-14T18:11:58.196Z,23.16
2022-08-14T18:14:32.528Z,23.13
2022-08-14T18:17:16.065Z,23.08
2022-08-14T18:19:45.018Z,23.06
2022-08-14T18:22:31.287Z,22.96
2022-08-14T18:25:02.387Z,22.99
2022-08-14T18:27:38.726Z,22.97
2022-08-14T18:30:36.482Z,22.89
2022-08-14T18:32:59.196Z,22.89
2022-08-14T18:35:45.915Z,22.81
2022-08-14T18:38:52.418Z,22.87
2022-08-14T18:41:36.258Z,22.82
2022-08-14T18:44:10.138Z,22.79
2022-08-14T18:47:10.244Z,22.74
2022-08-14T18:49:55.079Z,22.71
2022-08-14T18:52:39.224Z,22.57
2022-08-14T18:55:18.291Z,22.60
2022-08-14T18:57:57.642Z,22.64
2022-08-14T19:00:32.911Z,22.63
2022-08-14T19:03:03.840Z,22.62
2022-08-14T19:05:47.405Z,22.59
2022-08-14T19:08:26.293Z,22.60
2022-08-14T19:10:57.154Z,22.60
2022-08-14T19:13:48.438Z,22.58
2022-08-14T19:16:26.113Z,22.58
2022-08-14T19:19:00.443Z,22.56
2022-08-14T19:21:32.334Z,22.54
2022-08-14T19:24:27.139Z,22.50
2022-08-14T19:27:19.673Z,22.50
2022-08-14T19:29:51.241Z,22.46
2022-08-14T19:32:36.982Z,22.35
2022-08-14T19:35:18.343Z,22.40
2022-08-14T19:37:57.033Z,22.38
2022-08-14T19:40:31.630Z,22.35
2022-08-14T19:43:02.001Z,22.32
2022-08-14T19:45:33.795Z,22.27
2022-08-14T19:48:02.377Z,22.27
2022-08-14T19:50:40.286Z,22.23
2022-08-14T19:53:16.757Z,22.21
2022-08-14T19:55:56.946Z,22.20
2022-08-14T19:58:54.546Z,22.12
2022-08-14T20:01:27.060Z,22.16
2022-08-14T20:04:45.434Z,22.10
2022-08-14T20:07:04.115Z,22.10
2022-08-14T20:11:04.104Z,22.04
2022-08-14T20:12:28.865Z,21.97
2022-08-14T20:15:15.390Z,22.01
2022-08-14T20:17:52.958Z,21.99
2022-08-14T20:20:32.449Z,21.97
2022-08-14T20:23:11.260Z,21.89
2022-08-14T20:25:45.702Z,21.85
2022-08-14T20:41:51.224Z,22.58
2022-08-14T20:44:42.331Z,22.58
2022-08-14T20:47:16.217Z,22.15
2022-08-14T20:49:43.993Z,22.04
2022-08-14T20:52:19.939Z,22.00
2022-08-14T20:54:51.415Z,21.95
2022-08-14T20:57:19.384Z,21.90
2022-08-14T20:59:57.224Z,21.86
2022-08-14T21:02:49.682Z,21.83
2022-08-14T21:05:20.583Z,21.81
2022-08-14T21:07:51.433Z,21.74
2022-08-14T21:10:35.604Z,21.69
2022-08-14T21:13:25.395Z,21.62
2022-08-14T21:15:57.621Z,21.64
2022-08-14T21:18:31.722Z,21.58
2022-08-14T21:21:06.823Z,21.58
2022-08-14T21:23:54.492Z,21.55
2022-08-14T21:26:51.284Z,21.52
2022-08-14T21:29:14.274Z,21.51
2022-08-14T21:31:42.308Z,21.49
2022-08-14T21:34:31.703Z,21.39
2022-08-14T21:37:09.960Z,21.43
2022-08-14T21:39:37.743Z,21.39
2022-08-14T21:42:06.264Z,21.43
2022-08-14T21:44:42.840Z,21.36
2022-08-14T21:47:13.291Z,21.41
2022-08-14T21:49:46.379Z,21.42
2022-08-14T21:52:50.715Z,21.42
2022-08-14T21:55:10.451Z,21.40
2022-08-14T21:58:46.116Z,21.40
2022-08-14T22:00:36.544Z,21.30
2022-08-14T22:03:10.014Z,21.35
2022-08-14T22:05:39.698Z,21.29
2022-08-14T22:08:12.312Z,21.32
2022-08-14T22:10:42.493Z,21.30
2022-08-14T22:13:12.505Z,21.28
2022-08-14T22:15:43.915Z,21.25
2022-08-14T22:18:20.158Z,21.24
2022-08-14T22:20:53.355Z,21.24
2022-08-14T22:23:23.888Z,21.22
2022-08-14T22:25:52.297Z,21.19
2022-08-14T22:28:27.297Z,21.18
2022-08-14T22:31:09.946Z,21.16
2022-08-14T22:33:39.274Z,21.02
2022-08-14T22:36:26.488Z,21.10
2022-08-14T22:38:54.449Z,21.09
2022-08-14T22:41:27.706Z,21.01
2022-08-14T22:44:03.183Z,21.06
2022-08-14T22:46:30.727Z,21.05
2022-08-14T22:48:57.731Z,21.01
2022-08-14T22:51:27.704Z,20.95
2022-08-14T22:53:56.794Z,20.92
2022-08-14T22:56:29.284Z,20.97
2022-08-14T22:59:03.478Z,20.95
2022-08-14T23:02:05.299Z,20.96
2022-08-14T23:04:53.793Z,20.93
2022-08-14T23:07:23.623Z,20.91
2022-08-14T23:09:57.016Z,20.83
2022-08-14T23:12:27.835Z,20.88
2022-08-14T23:14:56.836Z,20.84
2022-08-14T23:17:23.957Z,20.81
2022-08-14T23:19:56.514Z,20.87
2022-08-14T23:22:26.210Z,20.86
2022-08-14T23:24:57.804Z,20.85
2022-08-14T23:27:31.633Z,20.83
2022-08-14T23:29:58.887Z,20.81
2022-08-14T23:32:30.197Z,20.80
2022-08-14T23:35:00.934Z,20.71
2022-08-14T23:37:29.107Z,20.72
2022-08-14T23:39:56.225Z,20.65
2022-08-14T23:42:23.386Z,20.68
2022-08-14T23:45:08.486Z,20.62
2022-08-14T23:47:52.151Z,20.67
2022-08-14T23:50:34.604Z,20.65
2022-08-14T23:53:28.324Z,20.64
2022-08-14T23:56:06.089Z,20.65
2022-08-14T23:58:36.853Z,20.61
